Terminal Aerodrome Forecast
Issued by NWS

Home | Current Version | Previous Version | Text Only | Print | Product List | Glossary On
Versions: 1 2 3 4 5 6 7 8 9 10 11 12 13 14 15 16 17 18 19
000
FTUS44 KJAN 190520
TAFHKS
TAF
KHKS 190520Z 1906/2006 18006KT P6SM -RA BKN080 OVC100
     FM190800 20006KT P6SM OVC007
     FM191500 23007KT P6SM BKN020
     FM191900 22010KT P6SM SCT040 BKN200
     FM200200 17010KT P6SM VCTS BKN040CB OVC120=

USA.gov is the U.S. government's official web portal to all federal, state and local government web resources and services.